createdAt,value
2023-02-27T00:01:26.132Z,1.40
2023-02-27T00:03:54.579Z,1.40
2023-02-27T00:06:22.854Z,1.40
2023-02-27T00:08:51.130Z,1.27
2023-02-27T00:11:20.667Z,1.40
2023-02-27T00:13:49.238Z,1.60
2023-02-27T00:16:17.497Z,1.70
2023-02-27T00:18:45.631Z,1.10
2023-02-27T00:21:13.820Z,1.00
2023-02-27T00:23:41.968Z,1.20
2023-02-27T00:26:10.121Z,1.30
2023-02-27T00:28:39.624Z,1.10
2023-02-27T00:31:07.910Z,1.17
2023-02-27T00:33:36.237Z,1.07
2023-02-27T00:36:04.658Z,1.23
2023-02-27T00:38:32.988Z,1.10
2023-02-27T00:41:01.364Z,0.90
2023-02-27T00:43:29.570Z,1.10
2023-02-27T00:45:59.056Z,1.10
2023-02-27T00:48:27.247Z,0.93
2023-02-27T00:50:55.388Z,1.10
2023-02-27T00:53:24.259Z,1.00
2023-02-27T00:55:52.489Z,1.37
2023-02-27T00:58:20.707Z,1.03
2023-02-27T01:00:48.967Z,1.40
2023-02-27T01:03:18.549Z,1.00
2023-02-27T01:05:46.723Z,1.23
2023-02-27T01:08:14.874Z,1.10
2023-02-27T01:10:43.057Z,1.33
2023-02-27T01:13:11.471Z,0.90
2023-02-27T01:15:39.713Z,0.90
2023-02-27T01:18:07.962Z,1.13
2023-02-27T01:20:37.453Z,1.00
2023-02-27T01:23:05.645Z,1.00
2023-02-27T01:25:33.856Z,0.90
2023-02-27T01:28:02.190Z,1.07
2023-02-27T01:30:30.530Z,1.00
2023-02-27T01:32:58.704Z,1.00
2023-02-27T01:35:26.918Z,1.00
2023-02-27T01:37:56.468Z,1.10
2023-02-27T01:40:24.684Z,1.13
2023-02-27T01:42:52.837Z,0.90
2023-02-27T01:45:30.120Z,1.13
2023-02-27T01:48:00.866Z,1.00
2023-02-27T01:50:29.093Z,1.27
2023-02-27T01:53:00.368Z,0.83
2023-02-27T01:55:29.520Z,0.93
2023-02-27T01:57:58.568Z,1.40
2023-02-27T02:00:27.015Z,1.00
2023-02-27T02:02:58.576Z,1.10
2023-02-27T02:05:27.211Z,1.20
2023-02-27T02:07:55.650Z,1.20
2023-02-27T02:10:26.321Z,1.40
2023-02-27T02:12:54.829Z,1.40
2023-02-27T02:15:24.256Z,1.20
2023-02-27T02:17:56.143Z,1.00
2023-02-27T02:20:37.023Z,0.90
2023-02-27T02:23:22.311Z,0.87
2023-02-27T02:26:06.519Z,0.90
2023-02-27T02:28:47.831Z,0.90
2023-02-27T02:31:31.260Z,1.03
2023-02-27T02:34:14.860Z,0.97
2023-02-27T02:37:04.505Z,0.90
2023-02-27T02:39:47.510Z,1.20
2023-02-27T02:42:21.276Z,1.27
2023-02-27T02:44:55.000Z,1.20
2023-02-27T02:47:25.745Z,1.27
2023-02-27T02:49:58.060Z,1.10
2023-02-27T02:52:31.587Z,0.93
2023-02-27T02:55:01.678Z,1.00
2023-02-27T02:57:35.121Z,1.00
2023-02-27T03:00:07.058Z,1.10
2023-02-27T03:02:37.541Z,1.13
2023-02-27T03:05:07.936Z,1.33
2023-02-27T03:07:39.775Z,1.40
2023-02-27T03:10:10.710Z,1.10
2023-02-27T03:12:41.622Z,0.83
2023-02-27T03:15:13.794Z,1.17
2023-02-27T03:17:45.233Z,1.07
2023-02-27T03:20:17.390Z,1.10
2023-02-27T03:22:48.415Z,1.10
2023-02-27T03:25:16.900Z,0.90
2023-02-27T03:27:49.390Z,1.30
2023-02-27T03:30:19.928Z,1.30
2023-02-27T03:32:51.367Z,1.23
2023-02-27T03:35:19.701Z,1.10
2023-02-27T03:37:53.168Z,1.20
2023-02-27T03:40:25.770Z,1.40
2023-02-27T03:43:00.890Z,1.20
2023-02-27T03:45:34.103Z,1.03
2023-02-27T03:48:02.776Z,1.40
2023-02-27T03:50:31.058Z,1.20
2023-02-27T03:52:59.299Z,1.13
2023-02-27T03:55:29.729Z,1.47
2023-02-27T03:57:59.555Z,1.10
2023-02-27T04:00:28.261Z,1.17
2023-02-27T04:02:58.286Z,1.27
2023-02-27T04:05:26.481Z,1.30
2023-02-27T04:08:07.129Z,1.20
2023-02-27T04:10:46.088Z,1.23
2023-02-27T04:13:28.371Z,1.50
2023-02-27T04:16:05.638Z,1.50
2023-02-27T04:18:38.831Z,1.60
2023-02-27T04:21:09.193Z,1.37
2023-02-27T04:23:39.540Z,1.53
2023-02-27T04:26:16.173Z,1.13
2023-02-27T04:28:47.290Z,1.53
2023-02-27T04:31:19.180Z,1.27
2023-02-27T04:33:50.792Z,1.27
2023-02-27T04:36:23.168Z,1.97
2023-02-27T04:38:53.800Z,1.43
2023-02-27T04:41:23.431Z,1.47
2023-02-27T04:43:54.027Z,1.60
2023-02-27T04:46:24.217Z,1.50
2023-02-27T04:48:55.489Z,1.93
2023-02-27T04:51:31.053Z,1.70
2023-02-27T04:54:01.144Z,1.50
2023-02-27T04:56:32.401Z,1.97
2023-02-27T04:59:03.455Z,2.00
2023-02-27T05:01:35.569Z,1.53
2023-02-27T05:04:05.112Z,1.93
2023-02-27T05:06:35.874Z,2.20
2023-02-27T05:09:08.234Z,2.33
2023-02-27T05:11:40.191Z,1.83
2023-02-27T05:14:13.294Z,1.63
2023-02-27T05:16:43.272Z,1.70
2023-02-27T05:19:11.905Z,2.10
2023-02-27T05:21:42.808Z,1.80
2023-02-27T05:24:14.495Z,2.10
2023-02-27T05:26:47.926Z,2.00
2023-02-27T05:29:21.781Z,2.30
2023-02-27T05:31:53.953Z,1.80
2023-02-27T05:34:24.372Z,1.83
2023-02-27T05:36:55.318Z,2.13
2023-02-27T05:39:24.896Z,1.60
2023-02-27T05:41:55.725Z,1.97
2023-02-27T05:44:27.466Z,2.27
2023-02-27T05:46:57.816Z,1.80
2023-02-27T05:49:27.978Z,1.70
2023-02-27T05:51:57.381Z,1.83
2023-02-27T05:54:28.106Z,2.00
2023-02-27T05:56:57.894Z,1.93
2023-02-27T05:59:29.681Z,1.60
2023-02-27T06:01:58.073Z,2.27
2023-02-27T06:04:26.373Z,1.97
2023-02-27T06:06:54.870Z,2.00
2023-02-27T06:09:23.034Z,1.87
2023-02-27T06:11:51.298Z,1.80
2023-02-27T06:14:19.795Z,1.93
2023-02-27T06:16:49.405Z,2.23
2023-02-27T06:19:17.601Z,2.20
2023-02-27T06:21:45.853Z,2.40
2023-02-27T06:24:14.024Z,2.27
2023-02-27T06:26:42.229Z,2.37
2023-02-27T06:29:10.407Z,2.43
2023-02-27T06:31:38.644Z,2.20
2023-02-27T06:34:08.175Z,2.00
2023-02-27T06:36:36.353Z,2.10
2023-02-27T06:39:04.968Z,3.13
2023-02-27T06:41:33.221Z,2.43
2023-02-27T06:44:01.519Z,1.90
2023-02-27T06:46:29.974Z,2.20
2023-02-27T06:48:58.343Z,2.30
2023-02-27T06:51:27.932Z,2.20
2023-02-27T06:53:56.176Z,2.47
2023-02-27T06:56:24.593Z,2.23
2023-02-27T06:58:52.948Z,2.50
2023-02-27T07:01:21.243Z,2.13
2023-02-27T07:03:49.642Z,2.33
2023-02-27T07:06:18.002Z,2.47
2023-02-27T07:09:01.610Z,2.33
2023-02-27T07:11:34.938Z,2.37
2023-02-27T07:14:03.245Z,2.53
2023-02-27T07:16:31.534Z,2.90
2023-02-27T07:18:59.848Z,2.50
2023-02-27T07:21:27.994Z,2.80
2023-02-27T07:23:57.582Z,3.50
2023-02-27T07:26:26.148Z,2.30
2023-02-27T07:28:54.758Z,2.83
2023-02-27T07:31:23.007Z,2.37
2023-02-27T07:33:51.210Z,2.50
2023-02-27T07:36:19.360Z,2.60
2023-02-27T07:38:47.598Z,2.40
2023-02-27T07:41:29.594Z,2.53
2023-02-27T07:43:58.832Z,3.08
2023-02-27T07:46:27.863Z,2.53
2023-02-27T07:48:56.650Z,3.00
2023-02-27T07:51:24.868Z,2.60
2023-02-27T07:53:53.110Z,2.50
2023-02-27T07:56:22.685Z,2.50
2023-02-27T07:58:50.895Z,2.53
2023-02-27T08:01:19.094Z,2.33
2023-02-27T08:03:47.231Z,2.27
2023-02-27T08:06:15.448Z,2.63
2023-02-27T08:08:43.710Z,1.90
2023-02-27T08:11:12.094Z,2.37
2023-02-27T08:13:59.496Z,2.83
2023-02-27T08:16:29.129Z,2.50
2023-02-27T08:18:57.753Z,2.63
2023-02-27T08:21:26.337Z,2.60
2023-02-27T08:23:55.491Z,2.67
2023-02-27T08:26:24.061Z,2.50
2023-02-27T08:28:54.003Z,2.60
2023-02-27T08:31:22.285Z,2.10
2023-02-27T08:33:58.103Z,2.20
2023-02-27T08:36:36.066Z,2.30
2023-02-27T08:39:04.328Z,1.97
2023-02-27T08:41:32.554Z,1.77
2023-02-27T08:44:02.052Z,1.60
2023-02-27T08:46:30.525Z,1.97
2023-02-27T08:48:58.781Z,1.50
2023-02-27T08:51:27.262Z,1.90
2023-02-27T08:53:58.803Z,1.50
2023-02-27T08:56:27.992Z,1.50
2023-02-27T08:58:56.882Z,1.40
2023-02-27T09:01:31.626Z,1.70
2023-02-27T09:04:01.049Z,1.60
2023-02-27T09:06:29.680Z,1.77
2023-02-27T09:08:58.359Z,1.30
2023-02-27T09:11:27.884Z,1.87
2023-02-27T09:13:57.362Z,1.30
2023-02-27T09:16:27.560Z,1.20
2023-02-27T09:18:55.992Z,1.42
2023-02-27T09:21:24.819Z,1.47
2023-02-27T09:23:53.338Z,1.40
2023-02-27T09:26:28.941Z,1.47
2023-02-27T09:29:03.991Z,1.40
2023-02-27T09:31:34.154Z,1.57
2023-02-27T09:34:02.553Z,1.40
2023-02-27T09:36:30.852Z,1.50
2023-02-27T09:39:00.155Z,1.90
2023-02-27T09:41:41.408Z,1.20
2023-02-27T09:44:16.759Z,1.50
2023-02-27T09:46:46.243Z,1.20
2023-02-27T09:49:17.109Z,1.30
2023-02-27T09:51:45.422Z,1.40
2023-02-27T09:54:14.991Z,1.40
2023-02-27T09:56:46.116Z,1.17
2023-02-27T09:59:17.066Z,1.60
2023-02-27T10:01:49.694Z,1.37
2023-02-27T10:04:25.315Z,1.53
2023-02-27T10:06:54.564Z,1.47
2023-02-27T10:09:31.577Z,1.57
2023-02-27T10:12:07.714Z,1.70
2023-02-27T10:14:40.152Z,1.57
2023-02-27T10:17:15.612Z,2.00
2023-02-27T10:19:46.142Z,1.70
2023-02-27T10:22:16.184Z,1.80
2023-02-27T10:24:46.808Z,1.53
2023-02-27T10:27:17.284Z,1.63
2023-02-27T10:29:45.489Z,1.90
2023-02-27T10:32:17.117Z,1.53
2023-02-27T10:34:47.333Z,1.50
2023-02-27T10:37:17.084Z,1.83
2023-02-27T10:39:48.525Z,1.50
2023-02-27T10:42:17.789Z,1.40
2023-02-27T10:44:46.313Z,1.70
2023-02-27T10:47:17.138Z,1.53
2023-02-27T10:49:45.529Z,1.43
2023-02-27T10:52:14.405Z,1.37
2023-02-27T10:54:43.228Z,1.30
2023-02-27T10:57:20.881Z,1.60
2023-02-27T10:59:53.062Z,1.60
2023-02-27T11:02:23.893Z,1.37
2023-02-27T11:04:54.609Z,1.40
2023-02-27T11:07:34.099Z,1.33
2023-02-27T11:10:17.057Z,1.30
2023-02-27T11:12:58.122Z,1.40
2023-02-27T11:15:27.283Z,1.27
2023-02-27T11:17:56.964Z,1.83
2023-02-27T11:20:36.787Z,1.20
2023-02-27T11:23:06.399Z,1.90
2023-02-27T11:25:34.593Z,1.10
2023-02-27T11:28:16.617Z,1.20
2023-02-27T11:30:45.084Z,0.87
2023-02-27T11:33:19.910Z,0.80
2023-02-27T11:35:57.643Z,1.40
2023-02-27T11:38:27.895Z,0.97
2023-02-27T11:40:56.870Z,0.93
2023-02-27T11:43:26.824Z,1.10
2023-02-27T11:46:19.034Z,1.20
2023-02-27T11:48:49.132Z,0.97
2023-02-27T11:51:26.656Z,0.70
2023-02-27T11:54:07.045Z,0.90
2023-02-27T11:56:36.620Z,1.20
2023-02-27T11:59:06.702Z,1.00
2023-02-27T12:01:36.253Z,1.30
2023-02-27T12:04:06.969Z,1.20
2023-02-27T12:06:38.649Z,0.80
2023-02-27T12:09:07.988Z,1.03
2023-02-27T12:11:37.693Z,0.93
2023-02-27T12:14:07.689Z,0.90
2023-02-27T12:16:38.103Z,1.23
2023-02-27T12:19:12.575Z,0.90
2023-02-27T12:21:43.662Z,1.20
2023-02-27T12:24:15.816Z,1.00
2023-02-27T12:26:44.799Z,1.00
2023-02-27T12:29:16.893Z,1.10
2023-02-27T12:31:48.945Z,1.10
2023-02-27T12:34:22.256Z,0.80
2023-02-27T12:36:50.471Z,1.17
2023-02-27T12:39:20.589Z,0.90
2023-02-27T12:42:04.017Z,0.80
2023-02-27T12:44:37.918Z,0.90
2023-02-27T12:47:10.936Z,0.90
2023-02-27T12:49:43.901Z,1.13
2023-02-27T12:52:18.709Z,1.10
2023-02-27T12:54:53.793Z,0.80
2023-02-27T12:57:29.863Z,1.07
2023-02-27T13:00:02.925Z,1.10
2023-02-27T13:02:36.935Z,1.10
2023-02-27T13:05:11.839Z,0.90
2023-02-27T13:07:46.595Z,0.80
2023-02-27T13:10:17.685Z,0.90
2023-02-27T13:12:49.939Z,1.23
2023-02-27T13:15:21.754Z,0.93
2023-02-27T13:17:51.956Z,1.00
2023-02-27T13:20:29.880Z,0.90
2023-02-27T13:23:00.487Z,1.00
2023-02-27T13:25:28.968Z,0.90
2023-02-27T13:27:58.425Z,0.70
2023-02-27T13:30:28.684Z,0.80
2023-02-27T13:33:01.534Z,0.90
2023-02-27T13:35:36.118Z,0.60
2023-02-27T13:38:05.909Z,0.80
2023-02-27T13:40:35.978Z,0.80
2023-02-27T13:43:06.452Z,1.77
2023-02-27T13:45:48.687Z,1.23
2023-02-27T13:48:35.515Z,0.83
2023-02-27T13:51:05.167Z,1.10
2023-02-27T13:53:33.441Z,1.07
2023-02-27T13:56:21.788Z,1.23
2023-02-27T13:58:50.519Z,0.70
2023-02-27T14:01:19.892Z,0.90
2023-02-27T14:03:54.474Z,0.80
2023-02-27T14:06:25.007Z,1.10
2023-02-27T14:09:08.895Z,1.30
2023-02-27T14:11:42.538Z,1.47
2023-02-27T14:14:11.601Z,1.00
2023-02-27T14:16:59.755Z,1.20
2023-02-27T14:19:42.979Z,1.20
2023-02-27T14:22:29.711Z,1.10
2023-02-27T14:25:05.230Z,1.23
2023-02-27T14:27:34.610Z,0.90
2023-02-27T14:30:04.440Z,1.00
2023-02-27T14:32:34.089Z,1.90
2023-02-27T14:35:02.779Z,1.30
2023-02-27T14:37:31.296Z,1.20
2023-02-27T14:40:03.084Z,1.70
2023-02-27T14:42:38.652Z,1.30
2023-02-27T14:45:14.587Z,1.07
2023-02-27T14:47:42.968Z,1.30
2023-02-27T14:50:22.670Z,1.20
2023-02-27T14:52:50.944Z,1.23
2023-02-27T14:55:27.608Z,1.37
2023-02-27T14:57:56.525Z,1.30
2023-02-27T15:00:32.834Z,1.60
2023-02-27T15:03:01.432Z,1.30
2023-02-27T15:05:34.740Z,1.90
2023-02-27T15:08:03.619Z,1.70
2023-02-27T15:10:33.437Z,2.17
2023-02-27T15:13:02.885Z,1.47
2023-02-27T15:15:31.900Z,1.30
2023-02-27T15:18:00.972Z,1.60
2023-02-27T15:20:30.494Z,1.00
2023-02-27T15:22:58.740Z,1.00
2023-02-27T15:25:28.223Z,1.90
2023-02-27T15:27:59.133Z,1.50
2023-02-27T15:30:27.344Z,1.33
2023-02-27T15:32:55.976Z,0.97
2023-02-27T15:35:26.871Z,1.37
2023-02-27T15:37:56.966Z,1.20
2023-02-27T15:40:26.490Z,1.13
2023-02-27T15:42:55.498Z,1.10
2023-02-27T15:45:27.512Z,1.20
2023-02-27T15:47:55.894Z,1.40
2023-02-27T15:50:27.006Z,1.80
2023-02-27T15:52:56.441Z,1.47
2023-02-27T15:55:26.486Z,1.80
2023-02-27T15:58:02.659Z,1.67
2023-02-27T16:00:33.646Z,1.30
2023-02-27T16:03:02.057Z,0.90
2023-02-27T16:05:32.680Z,1.00
2023-02-27T16:08:02.567Z,1.20
2023-02-27T16:10:31.959Z,1.20
2023-02-27T16:13:00.184Z,1.20
2023-02-27T16:15:30.648Z,1.50
2023-02-27T16:18:23.602Z,1.20
2023-02-27T16:20:54.979Z,1.30
2023-02-27T16:23:25.124Z,1.10
2023-02-27T16:26:03.758Z,1.20
2023-02-27T16:28:32.999Z,1.17
2023-02-27T16:31:02.478Z,1.10
2023-02-27T16:33:36.608Z,2.07
2023-02-27T16:36:16.810Z,1.90
2023-02-27T16:38:45.275Z,1.00
2023-02-27T16:41:15.885Z,1.30
2023-02-27T16:43:45.056Z,1.30
2023-02-27T16:46:16.649Z,1.13
2023-02-27T16:48:46.444Z,1.00
2023-02-27T16:51:18.204Z,1.43
2023-02-27T16:53:48.292Z,1.10
2023-02-27T16:56:19.610Z,1.40
2023-02-27T16:58:48.453Z,1.20
2023-02-27T17:01:17.251Z,1.40
2023-02-27T17:03:47.269Z,1.33
2023-02-27T17:06:16.041Z,1.40
2023-02-27T17:08:45.041Z,1.70
2023-02-27T17:11:13.728Z,1.50
2023-02-27T17:13:42.039Z,1.40
2023-02-27T17:16:10.236Z,1.50
2023-02-27T17:18:38.830Z,1.03
2023-02-27T17:21:08.516Z,1.10
2023-02-27T17:23:36.715Z,1.10
2023-02-27T17:26:05.534Z,1.10
2023-02-27T17:28:33.868Z,1.30
2023-02-27T17:31:03.129Z,1.17
2023-02-27T17:33:32.925Z,1.00
2023-02-27T17:36:04.545Z,1.37
2023-02-27T17:38:34.144Z,2.10
2023-02-27T17:41:07.638Z,1.50
2023-02-27T17:43:35.993Z,1.70
2023-02-27T17:46:06.898Z,1.70
2023-02-27T17:48:35.491Z,1.47
2023-02-27T17:51:07.194Z,1.73
2023-02-27T17:53:37.124Z,2.43
2023-02-27T17:56:05.874Z,1.83
2023-02-27T17:58:34.742Z,1.77
2023-02-27T18:01:05.570Z,1.80
2023-02-27T18:03:33.930Z,2.30
2023-02-27T18:06:02.305Z,2.50
2023-02-27T18:08:31.443Z,2.50
2023-02-27T18:11:01.278Z,1.97
2023-02-27T18:13:29.844Z,3.07
2023-02-27T18:15:58.618Z,4.20
2023-02-27T18:18:26.889Z,4.80
2023-02-27T18:21:02.185Z,3.97
2023-02-27T18:23:30.547Z,3.37
2023-02-27T18:25:59.645Z,3.10
2023-02-27T18:28:29.744Z,3.20
2023-02-27T18:30:58.283Z,3.73
2023-02-27T18:33:27.493Z,4.90
2023-02-27T18:35:55.849Z,4.80
2023-02-27T18:38:24.106Z,3.13
2023-02-27T18:40:52.324Z,2.30
2023-02-27T18:43:20.616Z,2.10
2023-02-27T18:45:50.456Z,1.80
2023-02-27T18:48:18.699Z,1.53
2023-02-27T18:50:46.917Z,1.90
2023-02-27T18:53:15.183Z,1.70
2023-02-27T18:55:43.566Z,1.70
2023-02-27T18:58:11.875Z,1.67
2023-02-27T19:00:40.162Z,1.70
2023-02-27T19:03:10.015Z,1.90
2023-02-27T19:05:41.492Z,1.90
2023-02-27T19:08:09.737Z,2.00
2023-02-27T19:10:39.869Z,1.80
2023-02-27T19:13:09.415Z,1.87
2023-02-27T19:15:37.805Z,1.93
2023-02-27T19:18:06.800Z,2.30
2023-02-27T19:20:36.417Z,2.27
2023-02-27T19:23:04.883Z,2.40
2023-02-27T19:25:33.170Z,2.80
2023-02-27T19:28:01.431Z,3.00
2023-02-27T19:30:29.792Z,2.57
2023-02-27T19:32:57.972Z,2.67
2023-02-27T19:35:26.182Z,3.33
2023-02-27T19:37:58.125Z,2.87
2023-02-27T19:40:28.116Z,3.20
2023-02-27T19:42:56.330Z,4.57
2023-02-27T19:45:24.786Z,3.93
2023-02-27T19:47:53.616Z,3.50
2023-02-27T19:50:22.069Z,3.43
2023-02-27T19:52:50.234Z,3.63
2023-02-27T19:55:20.404Z,3.20
2023-02-27T19:57:48.584Z,4.20
2023-02-27T20:00:17.530Z,4.60
2023-02-27T20:02:45.650Z,4.60
2023-02-27T20:05:13.856Z,6.03
2023-02-27T20:07:42.438Z,5.20
2023-02-27T20:10:11.424Z,5.93
2023-02-27T20:12:40.974Z,7.03
2023-02-27T20:15:11.530Z,5.03
2023-02-27T20:17:41.958Z,5.27
2023-02-27T20:20:10.931Z,4.37
2023-02-27T20:22:39.137Z,3.43
2023-02-27T20:25:07.574Z,3.30
2023-02-27T20:27:35.777Z,2.40
2023-02-27T20:30:05.746Z,3.33
2023-02-27T20:32:33.992Z,3.07
2023-02-27T20:35:02.193Z,3.60
2023-02-27T20:37:35.385Z,2.60
2023-02-27T20:40:04.149Z,2.40
2023-02-27T20:42:32.343Z,2.83
2023-02-27T20:45:00.546Z,2.67
2023-02-27T20:47:30.101Z,2.73
2023-02-27T20:49:58.258Z,2.90
2023-02-27T20:52:26.923Z,2.90
2023-02-27T20:54:55.316Z,2.53
2023-02-27T20:57:23.524Z,2.70
2023-02-27T20:59:51.767Z,2.57
2023-02-27T21:02:19.976Z,2.83
2023-02-27T21:04:50.700Z,2.97
2023-02-27T21:07:21.298Z,2.80
2023-02-27T21:09:49.693Z,2.50
2023-02-27T21:12:18.225Z,2.60
2023-02-27T21:14:46.807Z,3.13
2023-02-27T21:17:15.092Z,2.87
2023-02-27T21:19:43.237Z,3.00
2023-02-27T21:22:14.200Z,3.40
2023-02-27T21:24:42.402Z,2.87
2023-02-27T21:27:10.547Z,2.60
2023-02-27T21:29:38.805Z,3.10
2023-02-27T21:32:07.411Z,2.70
2023-02-27T21:34:35.729Z,3.00
2023-02-27T21:37:06.112Z,2.80
2023-02-27T21:39:35.798Z,3.00
2023-02-27T21:42:04.019Z,3.23
2023-02-27T21:44:32.344Z,2.93
2023-02-27T21:47:10.157Z,2.90
2023-02-27T21:49:39.157Z,2.83
2023-02-27T21:52:07.538Z,2.63
2023-02-27T21:54:37.058Z,2.80
2023-02-27T21:57:05.360Z,2.70
2023-02-27T21:59:33.596Z,2.40
2023-02-27T22:02:01.832Z,3.13
2023-02-27T22:04:30.084Z,2.70
2023-02-27T22:06:58.263Z,2.73
2023-02-27T22:09:26.447Z,2.60
2023-02-27T22:11:55.963Z,2.93
2023-02-27T22:14:24.554Z,2.97
2023-02-27T22:16:52.721Z,2.50
2023-02-27T22:19:22.036Z,2.57
2023-02-27T22:21:50.275Z,2.30
2023-02-27T22:24:18.454Z,2.30
2023-02-27T22:26:47.783Z,2.73
2023-02-27T22:29:17.630Z,3.03
2023-02-27T22:31:46.041Z,2.67
2023-02-27T22:34:17.883Z,2.47
2023-02-27T22:36:46.511Z,2.40
2023-02-27T22:39:14.685Z,2.40
2023-02-27T22:41:43.410Z,2.80
2023-02-27T22:44:13.710Z,2.67
2023-02-27T22:46:44.035Z,2.40
2023-02-27T22:49:14.399Z,2.50
2023-02-27T22:51:42.626Z,2.30
2023-02-27T22:54:11.174Z,2.50
2023-02-27T22:56:39.455Z,2.43
2023-02-27T22:59:07.916Z,2.40
2023-02-27T23:01:37.332Z,2.07
2023-02-27T23:04:07.918Z,2.00
2023-02-27T23:06:38.758Z,2.57
2023-02-27T23:09:08.163Z,2.40
2023-02-27T23:11:36.353Z,2.50
2023-02-27T23:14:04.476Z,2.30
2023-02-27T23:16:32.720Z,2.40
2023-02-27T23:19:01.306Z,2.73
2023-02-27T23:21:34.364Z,2.60
2023-02-27T23:24:04.056Z,2.90
2023-02-27T23:26:32.245Z,2.53
2023-02-27T23:29:00.419Z,2.50
2023-02-27T23:31:29.237Z,2.83
2023-02-27T23:33:57.765Z,2.37
2023-02-27T23:36:25.964Z,2.07
2023-02-27T23:38:57.151Z,2.60
2023-02-27T23:41:26.727Z,2.47
2023-02-27T23:44:13.168Z,2.53
2023-02-27T23:46:41.414Z,2.37
2023-02-27T23:49:09.750Z,2.50
2023-02-27T23:51:37.981Z,2.40
2023-02-27T23:54:07.583Z,2.40
2023-02-27T23:56:35.814Z,2.50
2023-02-27T23:59:05.095Z,2.50
